createdAt,value
2022-12-13T00:01:14.526Z,12.75
2022-12-13T00:03:44.959Z,11.87
2022-12-13T00:06:17.887Z,11.67
2022-12-13T00:08:48.271Z,15.83
2022-12-13T00:11:22.601Z,11.70
2022-12-13T00:13:53.574Z,14.47
2022-12-13T00:16:27.261Z,12.50
2022-12-13T00:19:01.015Z,11.03
2022-12-13T00:21:35.882Z,13.53
2022-12-13T00:24:09.077Z,11.97
2022-12-13T00:26:39.871Z,12.83
2022-12-13T00:29:11.736Z,11.73
2022-12-13T00:34:33.079Z,10.50
2022-12-13T00:37:06.226Z,9.25
2022-12-13T00:39:36.563Z,10.60
2022-12-13T00:42:07.471Z,9.70
2022-12-13T00:44:37.904Z,10.20
2022-12-13T00:47:08.473Z,10.57
2022-12-13T00:49:38.818Z,10.52
2022-12-13T00:52:12.070Z,9.13
2022-12-13T00:54:42.390Z,15.00
2022-12-13T00:57:12.768Z,15.20
2022-12-13T00:59:43.103Z,13.30
2022-12-13T01:02:13.447Z,13.93
2022-12-13T01:04:43.792Z,15.60
2022-12-13T01:07:16.719Z,14.70
2022-12-13T01:09:47.163Z,12.93
2022-12-13T01:12:17.533Z,14.13
2022-12-13T01:14:50.673Z,12.47
2022-12-13T01:17:25.022Z,11.67
2022-12-13T01:19:55.486Z,11.17
2022-12-13T01:22:28.402Z,11.17
2022-12-13T01:24:58.639Z,13.50
2022-12-13T01:27:28.941Z,10.57
2022-12-13T01:29:59.290Z,13.30
2022-12-13T01:32:29.630Z,14.47
2022-12-13T01:34:59.979Z,14.97
2022-12-13T01:37:32.932Z,13.43
2022-12-13T01:40:15.958Z,13.77
2022-12-13T01:42:47.346Z,13.97
2022-12-13T01:45:28.837Z,15.33
2022-12-13T01:48:03.501Z,16.50
2022-12-13T01:50:39.076Z,14.30
2022-12-13T01:53:17.487Z,15.50
2022-12-13T01:55:50.883Z,13.83
2022-12-13T01:58:21.988Z,16.20
2022-12-13T02:00:53.452Z,16.58
2022-12-13T02:03:25.251Z,14.63
2022-12-13T02:06:02.839Z,16.50
2022-12-13T02:08:36.780Z,14.90
2022-12-13T02:11:08.339Z,14.63
2022-12-13T02:13:42.371Z,13.10
2022-12-13T02:16:24.492Z,13.30
2022-12-13T02:19:20.219Z,14.87
2022-12-13T02:22:03.547Z,13.37
2022-12-13T02:25:03.703Z,14.70
2022-12-13T02:28:31.276Z,13.83
2022-12-13T02:31:10.321Z,14.03
2022-12-13T02:33:54.057Z,13.00
2022-12-13T02:36:36.417Z,13.83
2022-12-13T02:39:14.446Z,15.67
2022-12-13T02:41:51.671Z,14.10
2022-12-13T02:44:26.195Z,16.50
2022-12-13T02:47:03.248Z,15.73
2022-12-13T02:49:40.522Z,13.03
2022-12-13T02:52:12.582Z,13.67
2022-12-13T02:54:43.155Z,14.53
2022-12-13T02:57:35.542Z,16.03
2022-12-13T03:00:13.151Z,14.60
2022-12-13T03:03:02.199Z,12.80
2022-12-13T03:05:57.492Z,14.57
2022-12-13T03:08:34.221Z,13.30
2022-12-13T03:11:11.329Z,14.33
2022-12-13T03:13:51.474Z,15.17
2022-12-13T03:16:33.943Z,16.57
2022-12-13T03:19:11.088Z,15.47
2022-12-13T03:21:47.639Z,14.70
2022-12-13T03:24:21.560Z,12.37
2022-12-13T03:26:53.340Z,14.13
2022-12-13T03:29:25.482Z,12.63
2022-12-13T03:31:56.932Z,13.27
2022-12-13T03:34:43.658Z,14.40
2022-12-13T03:37:16.276Z,12.60
2022-12-13T03:39:46.792Z,14.23
2022-12-13T03:42:17.875Z,12.55
2022-12-13T03:44:48.284Z,12.40
2022-12-13T03:47:19.244Z,13.50
2022-12-13T03:49:54.087Z,15.20
2022-12-13T03:52:24.823Z,16.33
2022-12-13T03:54:55.174Z,14.03
2022-12-13T03:57:25.611Z,14.25
2022-12-13T03:59:56.020Z,11.17
2022-12-13T04:02:30.800Z,12.83
2022-12-13T04:05:04.672Z,12.27
2022-12-13T04:07:34.980Z,13.60
2022-12-13T04:10:25.417Z,14.70
2022-12-13T04:13:08.546Z,13.17
2022-12-13T04:15:38.842Z,16.47
2022-12-13T04:18:09.913Z,12.20
2022-12-13T04:20:42.881Z,11.93
2022-12-13T04:23:13.251Z,13.53
2022-12-13T04:25:44.439Z,13.33
2022-12-13T04:28:21.768Z,13.23
2022-12-13T04:30:54.127Z,12.43
2022-12-13T04:33:25.173Z,14.57
2022-12-13T04:35:58.225Z,14.52
2022-12-13T04:38:28.640Z,11.70
2022-12-13T04:41:09.664Z,15.03
2022-12-13T04:43:39.991Z,11.40
2022-12-13T04:46:10.850Z,10.70
2022-12-13T04:48:41.274Z,13.45
2022-12-13T04:51:14.220Z,12.10
2022-12-13T04:53:44.757Z,11.27
2022-12-13T04:56:15.256Z,14.00
2022-12-13T04:58:45.893Z,15.23
2022-12-13T05:01:17.216Z,16.25
2022-12-13T05:03:47.764Z,13.85
2022-12-13T05:06:26.999Z,14.90
2022-12-13T05:09:00.854Z,13.10
2022-12-13T05:11:35.367Z,13.57
2022-12-13T05:14:06.268Z,12.60
2022-12-13T05:16:36.766Z,12.35
2022-12-13T05:19:07.174Z,11.93
2022-12-13T05:21:40.089Z,13.73
2022-12-13T05:24:11.494Z,13.20
2022-12-13T05:26:41.753Z,11.67
2022-12-13T05:29:12.100Z,12.83
2022-12-13T05:31:43.245Z,12.43
2022-12-13T05:34:13.709Z,15.20
2022-12-13T05:36:46.887Z,15.13
2022-12-13T05:39:28.313Z,14.27
2022-12-13T05:42:02.832Z,13.77
2022-12-13T05:44:34.975Z,14.53
2022-12-13T05:47:05.382Z,15.07
2022-12-13T05:49:35.976Z,17.67
2022-12-13T05:52:20.631Z,18.33
2022-12-13T05:54:51.111Z,14.15
2022-12-13T05:57:24.170Z,11.95
2022-12-13T05:59:54.476Z,12.37
2022-12-13T06:02:26.113Z,11.30
2022-12-13T06:04:56.503Z,11.40
2022-12-13T06:07:29.457Z,12.60
2022-12-13T06:10:10.322Z,14.57
2022-12-13T06:12:43.288Z,14.23
2022-12-13T06:15:21.927Z,12.30
2022-12-13T06:17:53.394Z,11.97
2022-12-13T06:20:24.803Z,18.15
2022-12-13T06:22:57.918Z,14.50
2022-12-13T06:25:31.474Z,15.40
2022-12-13T06:28:02.626Z,13.50
2022-12-13T06:30:33.665Z,13.52
2022-12-13T06:33:04.098Z,15.32
2022-12-13T06:35:39.624Z,14.57
2022-12-13T06:38:14.508Z,11.43
2022-12-13T06:41:11.247Z,10.53
2022-12-13T06:43:44.787Z,12.37
2022-12-13T06:46:16.081Z,9.77
2022-12-13T06:48:46.477Z,12.63
2022-12-13T06:51:22.874Z,11.57
2022-12-13T06:54:05.659Z,11.40
2022-12-13T06:56:36.340Z,11.60
2022-12-13T06:59:06.796Z,11.88
2022-12-13T07:01:37.984Z,11.85
2022-12-13T07:04:30.306Z,13.40
2022-12-13T07:07:01.905Z,11.93
2022-12-13T07:09:36.308Z,12.63
2022-12-13T07:12:07.123Z,11.47
2022-12-13T07:14:40.462Z,11.15
2022-12-13T07:17:11.504Z,11.90
2022-12-13T07:19:41.893Z,12.30
2022-12-13T07:22:12.329Z,15.13
2022-12-13T07:24:45.403Z,11.20
2022-12-13T07:27:15.677Z,12.97
2022-12-13T07:29:46.214Z,13.13
2022-12-13T07:32:16.735Z,11.68
2022-12-13T07:34:47.157Z,13.35
2022-12-13T07:37:30.549Z,11.70
2022-12-13T07:40:04.933Z,13.30
2022-12-13T07:42:35.769Z,10.03
2022-12-13T07:45:07.183Z,11.63
2022-12-13T07:47:40.908Z,11.77
2022-12-13T07:50:24.108Z,12.17
2022-12-13T07:52:56.483Z,12.07
2022-12-13T07:55:33.244Z,12.87
2022-12-13T07:58:10.469Z,14.47
2022-12-13T08:00:46.550Z,10.67
2022-12-13T08:03:25.189Z,11.43
2022-12-13T08:06:03.002Z,11.63
2022-12-13T08:08:34.465Z,12.87
2022-12-13T08:11:10.911Z,10.87
2022-12-13T08:13:43.570Z,10.17
2022-12-13T08:16:27.070Z,13.30
2022-12-13T08:19:01.597Z,14.23
2022-12-13T08:24:30.448Z,10.40
2022-12-13T08:27:05.865Z,12.67
2022-12-13T08:29:37.553Z,11.73
2022-12-13T08:32:09.900Z,13.20
2022-12-13T08:34:41.376Z,12.83
2022-12-13T08:37:12.298Z,16.90
2022-12-13T08:39:43.021Z,12.82
2022-12-13T08:42:20.172Z,15.75
2022-12-13T08:44:52.692Z,14.83
2022-12-13T08:47:26.550Z,14.23
2022-12-13T08:50:02.413Z,15.40
2022-12-13T08:52:39.824Z,14.70
2022-12-13T08:55:17.429Z,14.30
2022-12-13T08:57:51.965Z,16.67
2022-12-13T09:00:23.548Z,15.47
2022-12-13T09:02:54.324Z,18.37
2022-12-13T09:05:34.231Z,16.63
2022-12-13T09:08:24.770Z,21.88
2022-12-13T09:11:11.237Z,15.97
2022-12-13T09:14:01.413Z,18.50
2022-12-13T09:16:35.686Z,16.77
2022-12-13T09:19:26.235Z,22.00
2022-12-13T09:22:02.322Z,19.73
2022-12-13T09:24:35.999Z,24.47
2022-12-13T09:27:09.760Z,20.90
2022-12-13T09:29:43.097Z,20.80
2022-12-13T09:32:13.479Z,22.80
2022-12-13T09:34:46.285Z,22.27
2022-12-13T09:37:23.141Z,22.07
2022-12-13T09:39:54.802Z,20.60
2022-12-13T09:42:30.479Z,19.07
2022-12-13T09:45:22.424Z,19.63
2022-12-13T09:48:01.078Z,18.27
2022-12-13T09:50:38.691Z,20.47
2022-12-13T09:53:11.944Z,16.13
2022-12-13T09:55:54.320Z,18.20
2022-12-13T09:58:41.090Z,14.43
2022-12-13T10:01:23.044Z,15.97
2022-12-13T10:03:55.529Z,17.90
2022-12-13T10:06:31.623Z,17.40
2022-12-13T10:09:04.822Z,18.03
2022-12-13T10:11:35.453Z,16.33
2022-12-13T10:14:09.146Z,15.23
2022-12-13T10:16:49.561Z,14.27
2022-12-13T10:19:29.408Z,14.63
2022-12-13T10:22:02.880Z,15.70
2022-12-13T10:24:52.163Z,15.27
2022-12-13T10:27:28.777Z,14.18
2022-12-13T10:30:13.672Z,15.98
2022-12-13T10:32:56.542Z,14.35
2022-12-13T10:35:34.553Z,13.57
2022-12-13T10:38:06.858Z,13.02
2022-12-13T10:40:40.534Z,12.65
2022-12-13T10:43:15.430Z,12.43
2022-12-13T10:45:47.174Z,12.13
2022-12-13T10:48:28.771Z,9.93
2022-12-13T10:51:06.843Z,10.10
2022-12-13T10:53:46.939Z,12.80
2022-12-13T10:56:23.108Z,10.63
2022-12-13T10:59:17.508Z,13.20
2022-12-13T11:01:48.370Z,13.10
2022-12-13T11:04:31.155Z,15.10
2022-12-13T11:07:05.095Z,13.15
2022-12-13T11:09:38.293Z,14.73
2022-12-13T11:12:18.511Z,11.27
2022-12-13T11:14:57.090Z,11.77
2022-12-13T11:17:30.235Z,11.82
2022-12-13T11:20:08.485Z,10.50
2022-12-13T11:22:41.746Z,10.55
2022-12-13T11:25:23.477Z,7.55
2022-12-13T11:28:37.526Z,8.23
2022-12-13T11:31:14.370Z,9.05
2022-12-13T11:33:57.027Z,8.32
2022-12-13T11:36:41.732Z,9.48
2022-12-13T11:39:27.617Z,7.43
2022-12-13T11:42:04.288Z,8.98
2022-12-13T11:44:48.491Z,7.85
2022-12-13T11:47:26.341Z,7.35
2022-12-13T11:49:57.563Z,9.85
2022-12-13T11:52:38.524Z,8.80
2022-12-13T11:57:59.040Z,7.70
2022-12-13T12:00:37.274Z,7.03
2022-12-13T12:03:20.118Z,7.47
2022-12-13T12:05:56.142Z,8.63
2022-12-13T12:08:39.557Z,9.35
2022-12-13T12:11:20.411Z,7.85
2022-12-13T12:13:57.933Z,9.80
2022-12-13T12:16:39.005Z,8.25
2022-12-13T12:19:16.970Z,8.27
2022-12-13T12:22:18.628Z,7.75
2022-12-13T12:25:04.125Z,7.93
2022-12-13T12:27:44.049Z,8.82
2022-12-13T12:30:22.880Z,8.30
2022-12-13T12:33:05.622Z,9.13
2022-12-13T12:36:02.089Z,7.25
2022-12-13T12:39:05.881Z,7.60
2022-12-13T12:41:54.339Z,7.57
2022-12-13T12:44:44.849Z,10.35
2022-12-13T12:48:03.613Z,9.10
2022-12-13T12:50:31.872Z,6.63
2022-12-13T12:53:19.950Z,7.65
2022-12-13T12:55:59.308Z,7.07
2022-12-13T12:58:41.451Z,6.20
2022-12-13T13:01:33.459Z,6.20
2022-12-13T13:04:12.352Z,7.93
2022-12-13T13:06:49.325Z,7.60
2022-12-13T13:09:24.651Z,6.40
2022-12-13T13:11:57.546Z,6.38
2022-12-13T13:14:37.409Z,5.55
2022-12-13T13:17:50.364Z,5.38
2022-12-13T13:20:26.490Z,5.45
2022-12-13T13:23:38.967Z,6.22
2022-12-13T13:26:24.270Z,5.32
2022-12-13T13:28:48.949Z,6.03
2022-12-13T13:31:22.074Z,7.35
2022-12-13T13:33:53.924Z,4.93
2022-12-13T13:36:52.580Z,6.32
2022-12-13T13:39:59.959Z,5.78
2022-12-13T13:42:32.070Z,5.68
2022-12-13T13:45:28.221Z,6.35
2022-12-13T13:48:25.085Z,5.47
2022-12-13T13:52:08.504Z,4.80
2022-12-13T13:55:25.914Z,5.43
2022-12-13T13:58:25.584Z,6.68
2022-12-13T14:01:28.939Z,6.28
2022-12-13T14:04:56.103Z,5.32
2022-12-13T14:08:04.712Z,4.35
2022-12-13T14:10:54.088Z,6.97
2022-12-13T14:14:22.266Z,6.43
2022-12-13T14:17:34.546Z,7.78
2022-12-13T14:20:39.941Z,9.50
2022-12-13T14:23:21.827Z,9.85
2022-12-13T14:26:14.906Z,11.57
2022-12-13T14:28:52.456Z,13.77
2022-12-13T14:31:27.250Z,11.70
2022-12-13T14:34:01.223Z,9.77
2022-12-13T14:36:36.524Z,10.60
2022-12-13T14:39:24.679Z,8.87
2022-12-13T14:41:58.773Z,10.70
2022-12-13T14:44:31.668Z,11.60
2022-12-13T14:47:05.486Z,10.67
2022-12-13T14:49:39.917Z,12.37
2022-12-13T14:52:26.911Z,12.23
2022-12-13T14:55:00.375Z,10.10
2022-12-13T14:57:33.564Z,12.20
2022-12-13T15:00:25.895Z,12.37
2022-12-13T15:02:59.945Z,11.30
2022-12-13T15:05:37.100Z,10.33
2022-12-13T15:08:12.007Z,12.30
2022-12-13T15:10:48.458Z,13.63
2022-12-13T15:13:33.686Z,13.23
2022-12-13T15:16:10.747Z,12.83
2022-12-13T15:18:50.682Z,13.23
2022-12-13T15:21:33.091Z,15.90
2022-12-13T15:24:15.207Z,13.67
2022-12-13T15:27:02.925Z,14.80
2022-12-13T15:29:37.847Z,13.40
2022-12-13T15:32:16.359Z,13.50
2022-12-13T15:34:46.713Z,15.50
2022-12-13T15:37:28.973Z,13.77
2022-12-13T15:40:10.906Z,15.50
2022-12-13T15:42:47.723Z,14.30
2022-12-13T15:45:29.188Z,13.60
2022-12-13T15:48:03.626Z,17.50
2022-12-13T15:50:41.047Z,15.30
2022-12-13T15:53:27.575Z,14.03
2022-12-13T15:56:04.826Z,15.37
2022-12-13T15:58:40.813Z,14.27
2022-12-13T16:03:58.294Z,21.73
2022-12-13T16:06:30.200Z,22.90
2022-12-13T16:09:03.814Z,36.17
2022-12-13T16:11:50.022Z,18.00
2022-12-13T16:14:49.721Z,15.60
2022-12-13T16:17:28.382Z,13.77
2022-12-13T16:20:06.150Z,15.17
2022-12-13T16:22:40.046Z,17.05
2022-12-13T16:25:12.755Z,17.00
2022-12-13T16:27:46.213Z,15.93
2022-12-13T16:30:25.854Z,17.63
2022-12-13T16:33:18.115Z,16.33
2022-12-13T16:35:46.790Z,18.13
2022-12-13T16:38:26.358Z,13.23
2022-12-13T16:40:59.233Z,13.93
2022-12-13T16:43:35.292Z,15.03
2022-12-13T16:47:14.998Z,16.30
2022-12-13T16:48:58.310Z,16.37
2022-12-13T16:51:28.649Z,14.83
2022-12-13T16:53:58.923Z,15.77
2022-12-13T16:56:29.310Z,15.93
2022-12-13T16:59:02.155Z,17.37
2022-12-13T17:01:33.112Z,15.53
2022-12-13T17:04:10.387Z,16.63
2022-12-13T17:06:43.674Z,16.97
2022-12-13T17:09:14.353Z,18.35
2022-12-13T17:11:45.036Z,17.35
2022-12-13T17:14:18.124Z,16.65
2022-12-13T17:16:48.446Z,15.73
2022-12-13T17:19:18.912Z,15.07
2022-12-13T17:21:49.213Z,14.05
2022-12-13T17:24:19.651Z,20.57
2022-12-13T17:26:54.923Z,16.87
2022-12-13T17:29:28.669Z,14.87
2022-12-13T17:32:00.009Z,16.90
2022-12-13T17:34:30.842Z,13.60
2022-12-13T17:37:05.650Z,16.65
2022-12-13T17:39:39.080Z,17.43
2022-12-13T17:42:09.816Z,16.10
2022-12-13T17:44:43.204Z,15.85
2022-12-13T17:47:13.940Z,17.57
2022-12-13T17:49:44.420Z,21.05
2022-12-13T17:52:14.869Z,23.67
2022-12-13T17:54:45.357Z,17.53
2022-12-13T17:57:15.795Z,18.48
2022-12-13T17:59:49.096Z,22.17
2022-12-13T18:02:23.147Z,20.30
2022-12-13T18:04:53.520Z,22.33
2022-12-13T18:07:24.046Z,22.23
2022-12-13T18:09:54.406Z,20.55
2022-12-13T18:12:24.666Z,21.13
2022-12-13T18:14:57.643Z,14.50
2022-12-13T18:17:46.533Z,18.00
2022-12-13T18:20:18.751Z,16.27
2022-12-13T18:22:51.514Z,19.27
2022-12-13T18:25:22.117Z,16.43
2022-12-13T18:27:57.499Z,15.20
2022-12-13T18:30:34.306Z,17.20
2022-12-13T18:33:05.439Z,16.23
2022-12-13T18:35:36.127Z,16.45
2022-12-13T18:38:06.567Z,44.08
2022-12-13T18:40:38.427Z,14.73
2022-12-13T18:43:08.765Z,14.23
2022-12-13T18:45:41.774Z,14.10
2022-12-13T18:48:12.711Z,15.33
2022-12-13T18:50:48.632Z,14.73
2022-12-13T18:53:19.526Z,16.90
2022-12-13T18:55:49.930Z,15.63
2022-12-13T18:58:20.224Z,17.63
2022-12-13T19:00:53.528Z,17.77
2022-12-13T19:03:24.424Z,15.13
2022-12-13T19:05:55.270Z,14.35
2022-12-13T19:08:26.540Z,15.23
2022-12-13T19:10:57.552Z,13.80
2022-12-13T19:13:29.085Z,16.33
2022-12-13T19:16:09.642Z,17.60
2022-12-13T19:18:40.337Z,18.97
2022-12-13T19:21:15.741Z,17.88
2022-12-13T19:23:53.178Z,19.67
2022-12-13T19:26:28.434Z,14.73
2022-12-13T19:29:00.687Z,16.87
2022-12-13T19:31:33.899Z,18.93
2022-12-13T19:34:05.289Z,16.87
2022-12-13T19:39:06.048Z,14.10
2022-12-13T19:41:36.804Z,12.73
2022-12-13T19:44:08.085Z,12.65
2022-12-13T19:49:13.259Z,15.60
2022-12-13T19:51:43.725Z,13.33
2022-12-13T19:54:14.264Z,15.65
2022-12-13T19:56:44.643Z,17.87
2022-12-13T19:59:15.306Z,13.90
2022-12-13T20:01:48.733Z,13.98
2022-12-13T20:04:19.315Z,14.00
2022-12-13T20:06:49.719Z,21.02
2022-12-13T20:09:20.055Z,17.90
2022-12-13T20:11:50.351Z,27.27
2022-12-13T20:14:20.619Z,15.23
2022-12-13T20:16:53.660Z,12.33
2022-12-13T20:19:23.894Z,15.63
2022-12-13T20:21:57.113Z,12.60
2022-12-13T20:24:27.665Z,12.70
2022-12-13T20:26:58.048Z,15.50
2022-12-13T20:29:28.639Z,15.38
2022-12-13T20:32:02.631Z,14.18
2022-12-13T20:34:33.147Z,15.73
2022-12-13T20:39:35.371Z,14.05
2022-12-13T20:42:05.891Z,17.13
2022-12-13T20:44:36.376Z,14.93
2022-12-13T20:47:09.795Z,15.20
2022-12-13T20:49:40.572Z,15.20
2022-12-13T20:52:11.089Z,17.00
2022-12-13T20:54:41.496Z,16.27
2022-12-13T20:57:11.923Z,15.47
2022-12-13T20:59:42.326Z,15.90
2022-12-13T21:02:16.687Z,16.37
2022-12-13T21:04:47.031Z,17.03
2022-12-13T21:07:37.448Z,15.07
2022-12-13T21:10:09.102Z,15.93
2022-12-13T21:12:39.413Z,16.00
2022-12-13T21:15:11.624Z,14.00
2022-12-13T21:17:44.684Z,13.00
2022-12-13T21:20:14.999Z,14.63
2022-12-13T21:22:46.307Z,20.97
2022-12-13T21:27:48.454Z,62.73
2022-12-13T21:30:18.875Z,57.63
2022-12-13T21:32:53.078Z,19.23
2022-12-13T21:35:23.415Z,19.07
2022-12-13T21:37:53.699Z,14.83
2022-12-13T21:40:25.750Z,16.93
2022-12-13T21:42:56.029Z,15.83
2022-12-13T21:45:26.455Z,16.47
2022-12-13T21:47:59.345Z,24.10
2022-12-13T21:50:29.678Z,23.80
2022-12-13T21:53:00.015Z,15.60
2022-12-13T21:55:38.989Z,16.70
2022-12-13T21:58:24.594Z,14.73
2022-12-13T22:00:55.276Z,17.60
2022-12-13T22:03:28.629Z,16.23
2022-12-13T22:05:59.015Z,22.83
2022-12-13T22:08:29.790Z,13.47
2022-12-13T22:11:16.418Z,17.75
2022-12-13T22:13:51.411Z,17.17
2022-12-13T22:16:21.745Z,15.50
2022-12-13T22:18:57.275Z,16.98
2022-12-13T22:21:27.960Z,16.53
2022-12-13T22:23:59.152Z,16.00
2022-12-13T22:26:29.914Z,17.90
2022-12-13T22:29:01.300Z,21.23
2022-12-13T22:31:32.085Z,29.63
2022-12-13T22:34:05.151Z,18.48
2022-12-13T22:36:35.790Z,16.73
2022-12-13T22:39:07.148Z,14.85
2022-12-13T22:44:08.254Z,15.60
2022-12-13T22:46:38.637Z,18.98
2022-12-13T22:49:12.535Z,14.57
2022-12-13T22:51:43.585Z,14.67
2022-12-13T22:54:14.315Z,16.98
2022-12-13T22:56:44.732Z,18.20
2022-12-13T22:59:15.035Z,45.20
2022-12-13T23:01:47.427Z,18.20
2022-12-13T23:04:20.739Z,15.80
2022-12-13T23:06:51.097Z,15.37
2022-12-13T23:09:22.215Z,18.10
2022-12-13T23:12:04.928Z,13.98
2022-12-13T23:14:37.147Z,18.40
2022-12-13T23:17:07.746Z,16.87
2022-12-13T23:19:51.047Z,14.68
2022-12-13T23:22:25.632Z,14.97
2022-12-13T23:24:56.554Z,15.03
2022-12-13T23:27:27.553Z,15.05
2022-12-13T23:29:57.917Z,20.13
2022-12-13T23:32:28.510Z,15.33
2022-12-13T23:35:01.663Z,14.52
2022-12-13T23:37:32.011Z,13.20
2022-12-13T23:40:02.398Z,13.07
2022-12-13T23:42:33.012Z,13.97
2022-12-13T23:45:03.424Z,13.32
2022-12-13T23:47:33.928Z,16.20
2022-12-13T23:50:07.470Z,12.13
2022-12-13T23:52:37.843Z,14.47
2022-12-13T23:55:10.236Z,13.10
2022-12-13T23:57:40.657Z,11.87
